TAF KFPR
KFPR 081741Z 0818/0918 21010KT P6SM SCT250 FM090100 25004KT P6SM FEW020 SCT250 FM091000 VRB04KT 6SM BR BKN010 FM091400 02004KT P6SM SCT020 SCT250=
METAR KFPR
WC KFPR
WS KFPR
WV KFPR